sensor_id;sensor_type;location;lat;lon;timestamp;P1;durP1;ratioP1;P2;durP2;ratioP2
70450;SDS011;58869;51.982;4.450;2022-11-15T00:00:49;48.39;;;45.84;;
70450;SDS011;58869;51.982;4.450;2022-11-15T00:03:16;48.11;;;45.66;;
70450;SDS011;58869;51.982;4.450;2022-11-15T00:05:43;48.60;;;46.29;;
70450;SDS011;58869;51.982;4.450;2022-11-15T00:08:09;48.66;;;46.09;;
70450;SDS011;58869;51.982;4.450;2022-11-15T00:10:35;48.51;;;45.63;;
70450;SDS011;58869;51.982;4.450;2022-11-15T00:13:07;49.21;;;46.11;;
70450;SDS011;58869;51.982;4.450;2022-11-15T00:15:39;49.49;;;46.49;;
70450;SDS011;58869;51.982;4.450;2022-11-15T00:18:06;50.46;;;47.17;;
70450;SDS011;58869;51.982;4.450;2022-11-15T00:20:37;49.78;;;46.76;;
70450;SDS011;58869;51.982;4.450;2022-11-15T00:23:03;49.75;;;46.40;;
70450;SDS011;58869;51.982;4.450;2022-11-15T00:25:29;50.89;;;47.18;;
70450;SDS011;58869;51.982;4.450;2022-11-15T00:27:55;49.20;;;45.98;;
70450;SDS011;58869;51.982;4.450;2022-11-15T00:30:21;49.44;;;45.94;;
70450;SDS011;58869;51.982;4.450;2022-11-15T00:32:47;49.83;;;46.62;;
70450;SDS011;58869;51.982;4.450;2022-11-15T00:35:13;52.30;;;48.21;;
70450;SDS011;58869;51.982;4.450;2022-11-15T00:37:38;51.96;;;47.94;;
70450;SDS011;58869;51.982;4.450;2022-11-15T00:40:04;51.14;;;47.72;;
70450;SDS011;58869;51.982;4.450;2022-11-15T00:42:29;52.75;;;48.49;;
70450;SDS011;58869;51.982;4.450;2022-11-15T00:45:01;52.43;;;48.72;;
70450;SDS011;58869;51.982;4.450;2022-11-15T00:47:29;52.59;;;48.70;;
70450;SDS011;58869;51.982;4.450;2022-11-15T00:49:55;53.15;;;49.18;;
70450;SDS011;58869;51.982;4.450;2022-11-15T00:52:20;52.04;;;48.37;;
70450;SDS011;58869;51.982;4.450;2022-11-15T00:54:46;52.72;;;49.13;;
70450;SDS011;58869;51.982;4.450;2022-11-15T00:57:11;50.87;;;47.87;;
70450;SDS011;58869;51.982;4.450;2022-11-15T00:59:37;52.98;;;48.86;;
70450;SDS011;58869;51.982;4.450;2022-11-15T01:02:02;53.46;;;49.57;;
70450;SDS011;58869;51.982;4.450;2022-11-15T01:04:28;54.83;;;50.66;;
70450;SDS011;58869;51.982;4.450;2022-11-15T01:06:53;53.98;;;50.20;;
70450;SDS011;58869;51.982;4.450;2022-11-15T01:09:19;55.20;;;50.84;;
70450;SDS011;58869;51.982;4.450;2022-11-15T01:11:44;52.90;;;49.17;;
70450;SDS011;58869;51.982;4.450;2022-11-15T01:14:10;55.63;;;51.37;;
70450;SDS011;58869;51.982;4.450;2022-11-15T01:16:35;56.28;;;51.68;;
70450;SDS011;58869;51.982;4.450;2022-11-15T01:19:01;53.72;;;50.08;;
70450;SDS011;58869;51.982;4.450;2022-11-15T01:21:28;54.40;;;50.47;;
70450;SDS011;58869;51.982;4.450;2022-11-15T01:23:54;54.50;;;50.51;;
70450;SDS011;58869;51.982;4.450;2022-11-15T01:26:20;56.08;;;51.92;;
70450;SDS011;58869;51.982;4.450;2022-11-15T01:28:46;57.14;;;52.64;;
70450;SDS011;58869;51.982;4.450;2022-11-15T01:31:13;54.54;;;50.83;;
70450;SDS011;58869;51.982;4.450;2022-11-15T01:33:40;55.92;;;51.53;;
70450;SDS011;58869;51.982;4.450;2022-11-15T01:36:07;55.50;;;51.69;;
70450;SDS011;58869;51.982;4.450;2022-11-15T01:38:37;54.32;;;51.02;;
70450;SDS011;58869;51.982;4.450;2022-11-15T01:41:02;57.14;;;53.25;;
70450;SDS011;58869;51.982;4.450;2022-11-15T01:43:32;57.69;;;53.54;;
70450;SDS011;58869;51.982;4.450;2022-11-15T01:48:37;56.20;;;52.68;;
70450;SDS011;58869;51.982;4.450;2022-11-15T01:51:04;57.63;;;53.81;;
70450;SDS011;58869;51.982;4.450;2022-11-15T01:53:33;56.37;;;52.92;;
70450;SDS011;58869;51.982;4.450;2022-11-15T01:56:03;54.78;;;51.83;;
70450;SDS011;58869;51.982;4.450;2022-11-15T01:58:31;55.27;;;52.16;;
70450;SDS011;58869;51.982;4.450;2022-11-15T02:00:58;54.82;;;51.59;;
70450;SDS011;58869;51.982;4.450;2022-11-15T02:03:25;55.99;;;52.65;;
70450;SDS011;58869;51.982;4.450;2022-11-15T02:05:58;54.40;;;51.84;;
70450;SDS011;58869;51.982;4.450;2022-11-15T02:08:24;54.56;;;52.01;;
70450;SDS011;58869;51.982;4.450;2022-11-15T02:10:49;54.67;;;51.78;;
70450;SDS011;58869;51.982;4.450;2022-11-15T02:13:18;53.42;;;50.48;;
70450;SDS011;58869;51.982;4.450;2022-11-15T02:15:47;53.69;;;51.16;;
70450;SDS011;58869;51.982;4.450;2022-11-15T02:18:28;52.45;;;49.86;;
70450;SDS011;58869;51.982;4.450;2022-11-15T02:27:02;51.33;;;49.22;;
70450;SDS011;58869;51.982;4.450;2022-11-15T02:32:48;51.07;;;49.08;;
70450;SDS011;58869;51.982;4.450;2022-11-15T02:35:23;51.86;;;49.53;;
70450;SDS011;58869;51.982;4.450;2022-11-15T02:38:31;50.48;;;48.47;;
70450;SDS011;58869;51.982;4.450;2022-11-15T02:41:07;50.14;;;48.26;;
70450;SDS011;58869;51.982;4.450;2022-11-15T02:43:55;51.02;;;49.09;;
70450;SDS011;58869;51.982;4.450;2022-11-15T02:46:45;49.78;;;48.26;;
70450;SDS011;58869;51.982;4.450;2022-11-15T02:49:35;50.37;;;48.67;;
70450;SDS011;58869;51.982;4.450;2022-11-15T02:52:02;48.62;;;47.25;;
70450;SDS011;58869;51.982;4.450;2022-11-15T02:54:29;48.67;;;47.25;;
70450;SDS011;58869;51.982;4.450;2022-11-15T02:57:01;48.38;;;46.80;;
70450;SDS011;58869;51.982;4.450;2022-11-15T03:07:29;44.01;;;42.96;;
70450;SDS011;58869;51.982;4.450;2022-11-15T03:18:02;40.67;;;39.38;;
70450;SDS011;58869;51.982;4.450;2022-11-15T03:20:35;39.63;;;38.59;;
70450;SDS011;58869;51.982;4.450;2022-11-15T03:23:05;39.25;;;38.36;;
70450;SDS011;58869;51.982;4.450;2022-11-15T03:25:33;36.80;;;36.27;;
70450;SDS011;58869;51.982;4.450;2022-11-15T03:28:03;36.10;;;35.42;;
70450;SDS011;58869;51.982;4.450;2022-11-15T03:30:31;36.56;;;35.91;;
70450;SDS011;58869;51.982;4.450;2022-11-15T03:33:01;35.61;;;34.94;;
70450;SDS011;58869;51.982;4.450;2022-11-15T03:35:37;33.79;;;33.11;;
70450;SDS011;58869;51.982;4.450;2022-11-15T03:38:08;32.68;;;32.11;;
70450;SDS011;58869;51.982;4.450;2022-11-15T03:40:59;31.81;;;31.30;;
70450;SDS011;58869;51.982;4.450;2022-11-15T03:43:44;30.12;;;29.79;;
70450;SDS011;58869;51.982;4.450;2022-11-15T03:46:14;28.21;;;27.87;;
70450;SDS011;58869;51.982;4.450;2022-11-15T03:48:56;27.48;;;27.10;;
70450;SDS011;58869;51.982;4.450;2022-11-15T03:51:42;26.64;;;26.44;;
70450;SDS011;58869;51.982;4.450;2022-11-15T03:54:07;23.07;;;23.05;;
70450;SDS011;58869;51.982;4.450;2022-11-15T03:56:33;22.24;;;22.16;;
70450;SDS011;58869;51.982;4.450;2022-11-15T03:58:58;22.59;;;22.51;;
70450;SDS011;58869;51.982;4.450;2022-11-15T04:01:23;21.60;;;21.54;;
70450;SDS011;58869;51.982;4.450;2022-11-15T04:03:49;21.26;;;21.09;;
70450;SDS011;58869;51.982;4.450;2022-11-15T04:06:15;21.27;;;21.09;;
70450;SDS011;58869;51.982;4.450;2022-11-15T04:08:41;20.31;;;20.21;;
70450;SDS011;58869;51.982;4.450;2022-11-15T04:11:07;19.71;;;19.57;;
70450;SDS011;58869;51.982;4.450;2022-11-15T04:13:32;19.05;;;18.94;;
70450;SDS011;58869;51.982;4.450;2022-11-15T04:15:58;19.07;;;18.92;;
70450;SDS011;58869;51.982;4.450;2022-11-15T04:18:23;18.29;;;18.21;;
70450;SDS011;58869;51.982;4.450;2022-11-15T04:20:49;17.52;;;17.49;;
70450;SDS011;58869;51.982;4.450;2022-11-15T04:23:33;18.07;;;17.96;;
70450;SDS011;58869;51.982;4.450;2022-11-15T04:26:18;16.76;;;16.72;;
70450;SDS011;58869;51.982;4.450;2022-11-15T04:28:45;17.94;;;17.72;;
70450;SDS011;58869;51.982;4.450;2022-11-15T04:31:30;17.21;;;17.16;;
70450;SDS011;58869;51.982;4.450;2022-11-15T04:33:55;17.72;;;17.61;;
70450;SDS011;58869;51.982;4.450;2022-11-15T04:36:21;17.64;;;17.49;;
70450;SDS011;58869;51.982;4.450;2022-11-15T04:39:05;16.89;;;16.85;;
70450;SDS011;58869;51.982;4.450;2022-11-15T04:41:31;16.89;;;16.86;;
70450;SDS011;58869;51.982;4.450;2022-11-15T04:43:56;16.87;;;16.78;;
70450;SDS011;58869;51.982;4.450;2022-11-15T04:46:22;17.02;;;16.98;;
70450;SDS011;58869;51.982;4.450;2022-11-15T04:48:48;17.15;;;17.15;;
70450;SDS011;58869;51.982;4.450;2022-11-15T04:51:14;17.36;;;17.33;;
70450;SDS011;58869;51.982;4.450;2022-11-15T04:53:41;17.90;;;17.87;;
70450;SDS011;58869;51.982;4.450;2022-11-15T04:56:07;17.99;;;17.98;;
70450;SDS011;58869;51.982;4.450;2022-11-15T04:58:33;17.80;;;17.76;;
70450;SDS011;58869;51.982;4.450;2022-11-15T05:01:07;18.28;;;18.05;;
70450;SDS011;58869;51.982;4.450;2022-11-15T05:03:33;17.50;;;17.42;;
70450;SDS011;58869;51.982;4.450;2022-11-15T05:06:17;17.45;;;17.19;;
70450;SDS011;58869;51.982;4.450;2022-11-15T05:08:43;16.97;;;16.81;;
70450;SDS011;58869;51.982;4.450;2022-11-15T05:11:08;15.84;;;15.81;;
70450;SDS011;58869;51.982;4.450;2022-11-15T05:13:34;16.22;;;16.13;;
70450;SDS011;58869;51.982;4.450;2022-11-15T05:15:59;15.76;;;15.70;;
70450;SDS011;58869;51.982;4.450;2022-11-15T05:18:25;14.88;;;14.87;;
70450;SDS011;58869;51.982;4.450;2022-11-15T05:20:50;15.18;;;15.18;;
70450;SDS011;58869;51.982;4.450;2022-11-15T05:23:16;14.76;;;14.76;;
70450;SDS011;58869;51.982;4.450;2022-11-15T05:25:41;14.75;;;14.63;;
70450;SDS011;58869;51.982;4.450;2022-11-15T05:28:06;14.88;;;14.86;;
70450;SDS011;58869;51.982;4.450;2022-11-15T05:30:32;14.88;;;14.88;;
70450;SDS011;58869;51.982;4.450;2022-11-15T05:32:57;14.88;;;14.86;;
70450;SDS011;58869;51.982;4.450;2022-11-15T05:37:56;15.02;;;15.01;;
70450;SDS011;58869;51.982;4.450;2022-11-15T05:40:22;14.73;;;14.73;;
70450;SDS011;58869;51.982;4.450;2022-11-15T05:42:48;14.18;;;14.18;;
70450;SDS011;58869;51.982;4.450;2022-11-15T05:45:14;13.31;;;13.31;;
70450;SDS011;58869;51.982;4.450;2022-11-15T05:47:39;13.16;;;13.16;;
70450;SDS011;58869;51.982;4.450;2022-11-15T05:50:11;12.73;;;12.73;;
70450;SDS011;58869;51.982;4.450;2022-11-15T05:52:39;12.03;;;12.03;;
70450;SDS011;58869;51.982;4.450;2022-11-15T05:55:05;11.80;;;11.80;;
70450;SDS011;58869;51.982;4.450;2022-11-15T05:57:32;11.77;;;11.77;;
70450;SDS011;58869;51.982;4.450;2022-11-15T05:59:58;11.03;;;11.03;;
70450;SDS011;58869;51.982;4.450;2022-11-15T06:02:23;11.23;;;11.23;;
70450;SDS011;58869;51.982;4.450;2022-11-15T06:04:52;10.79;;;10.73;;
70450;SDS011;58869;51.982;4.450;2022-11-15T06:07:17;10.43;;;10.37;;
70450;SDS011;58869;51.982;4.450;2022-11-15T06:09:42;9.85;;;9.84;;
70450;SDS011;58869;51.982;4.450;2022-11-15T06:12:10;9.35;;;9.35;;
70450;SDS011;58869;51.982;4.450;2022-11-15T06:14:36;9.20;;;9.20;;
70450;SDS011;58869;51.982;4.450;2022-11-15T06:17:01;8.84;;;8.84;;
70450;SDS011;58869;51.982;4.450;2022-11-15T06:19:27;8.74;;;8.74;;
70450;SDS011;58869;51.982;4.450;2022-11-15T06:21:57;8.04;;;8.04;;
70450;SDS011;58869;51.982;4.450;2022-11-15T06:24:26;7.76;;;7.76;;
70450;SDS011;58869;51.982;4.450;2022-11-15T06:26:52;8.01;;;8.00;;
70450;SDS011;58869;51.982;4.450;2022-11-15T06:29:18;7.28;;;7.27;;
70450;SDS011;58869;51.982;4.450;2022-11-15T06:31:43;7.89;;;7.89;;
70450;SDS011;58869;51.982;4.450;2022-11-15T06:34:08;7.79;;;7.79;;
70450;SDS011;58869;51.982;4.450;2022-11-15T06:36:34;8.10;;;8.09;;
70450;SDS011;58869;51.982;4.450;2022-11-15T06:39:01;7.95;;;7.95;;
70450;SDS011;58869;51.982;4.450;2022-11-15T06:41:28;8.28;;;8.28;;
70450;SDS011;58869;51.982;4.450;2022-11-15T06:43:53;8.26;;;8.21;;
70450;SDS011;58869;51.982;4.450;2022-11-15T06:46:19;8.32;;;8.26;;
70450;SDS011;58869;51.982;4.450;2022-11-15T06:48:44;8.58;;;8.54;;
70450;SDS011;58869;51.982;4.450;2022-11-15T06:51:09;8.61;;;8.57;;
70450;SDS011;58869;51.982;4.450;2022-11-15T06:53:35;8.67;;;8.66;;
70450;SDS011;58869;51.982;4.450;2022-11-15T06:56:05;9.02;;;8.99;;
70450;SDS011;58869;51.982;4.450;2022-11-15T06:58:35;9.14;;;9.09;;
70450;SDS011;58869;51.982;4.450;2022-11-15T07:01:05;8.81;;;8.81;;
70450;SDS011;58869;51.982;4.450;2022-11-15T07:03:40;9.08;;;9.04;;
70450;SDS011;58869;51.982;4.450;2022-11-15T07:06:07;8.79;;;8.78;;
70450;SDS011;58869;51.982;4.450;2022-11-15T07:08:33;8.63;;;8.56;;
70450;SDS011;58869;51.982;4.450;2022-11-15T07:11:03;8.50;;;8.48;;
70450;SDS011;58869;51.982;4.450;2022-11-15T07:13:31;9.15;;;9.14;;
70450;SDS011;58869;51.982;4.450;2022-11-15T07:16:07;8.46;;;8.43;;
70450;SDS011;58869;51.982;4.450;2022-11-15T07:18:34;8.12;;;8.11;;
70450;SDS011;58869;51.982;4.450;2022-11-15T07:21:06;8.27;;;8.24;;
70450;SDS011;58869;51.982;4.450;2022-11-15T07:23:35;8.34;;;8.34;;
70450;SDS011;58869;51.982;4.450;2022-11-15T07:26:01;8.12;;;8.12;;
70450;SDS011;58869;51.982;4.450;2022-11-15T07:28:27;7.59;;;7.59;;
70450;SDS011;58869;51.982;4.450;2022-11-15T07:30:54;7.47;;;7.47;;
70450;SDS011;58869;51.982;4.450;2022-11-15T07:33:19;7.38;;;7.37;;
70450;SDS011;58869;51.982;4.450;2022-11-15T07:35:45;7.26;;;7.22;;
70450;SDS011;58869;51.982;4.450;2022-11-15T07:38:13;7.05;;;7.04;;
70450;SDS011;58869;51.982;4.450;2022-11-15T07:40:40;7.24;;;7.23;;
70450;SDS011;58869;51.982;4.450;2022-11-15T07:43:06;7.29;;;7.28;;
70450;SDS011;58869;51.982;4.450;2022-11-15T07:45:39;7.16;;;7.16;;
70450;SDS011;58869;51.982;4.450;2022-11-15T07:48:08;7.60;;;7.60;;
70450;SDS011;58869;51.982;4.450;2022-11-15T07:50:34;7.34;;;7.34;;
70450;SDS011;58869;51.982;4.450;2022-11-15T07:52:59;7.68;;;7.62;;
70450;SDS011;58869;51.982;4.450;2022-11-15T07:55:25;8.02;;;8.02;;
70450;SDS011;58869;51.982;4.450;2022-11-15T07:57:52;8.91;;;8.90;;
70450;SDS011;58869;51.982;4.450;2022-11-15T08:00:18;9.02;;;9.02;;
70450;SDS011;58869;51.982;4.450;2022-11-15T08:02:45;8.59;;;8.59;;
70450;SDS011;58869;51.982;4.450;2022-11-15T08:05:13;9.08;;;9.07;;
70450;SDS011;58869;51.982;4.450;2022-11-15T08:07:39;8.70;;;8.70;;
70450;SDS011;58869;51.982;4.450;2022-11-15T08:13:18;7.60;;;7.58;;
70450;SDS011;58869;51.982;4.450;2022-11-15T08:15:43;7.35;;;7.33;;
70450;SDS011;58869;51.982;4.450;2022-11-15T08:18:16;7.07;;;7.07;;
70450;SDS011;58869;51.982;4.450;2022-11-15T08:20:41;6.71;;;6.68;;
70450;SDS011;58869;51.982;4.450;2022-11-15T08:23:16;7.36;;;7.36;;
70450;SDS011;58869;51.982;4.450;2022-11-15T08:25:44;8.05;;;8.05;;
70450;SDS011;58869;51.982;4.450;2022-11-15T08:28:10;8.98;;;8.93;;
70450;SDS011;58869;51.982;4.450;2022-11-15T08:30:39;9.13;;;9.12;;
70450;SDS011;58869;51.982;4.450;2022-11-15T08:33:10;9.08;;;9.08;;
70450;SDS011;58869;51.982;4.450;2022-11-15T08:35:37;9.18;;;9.18;;
70450;SDS011;58869;51.982;4.450;2022-11-15T08:38:03;8.52;;;8.51;;
70450;SDS011;58869;51.982;4.450;2022-11-15T08:40:28;9.25;;;9.22;;
70450;SDS011;58869;51.982;4.450;2022-11-15T08:42:54;9.38;;;9.38;;
70450;SDS011;58869;51.982;4.450;2022-11-15T08:45:19;9.59;;;9.59;;
70450;SDS011;58869;51.982;4.450;2022-11-15T08:47:45;9.40;;;9.40;;
70450;SDS011;58869;51.982;4.450;2022-11-15T08:50:10;9.42;;;9.42;;
70450;SDS011;58869;51.982;4.450;2022-11-15T08:52:36;8.83;;;8.82;;
70450;SDS011;58869;51.982;4.450;2022-11-15T08:55:01;8.74;;;8.74;;
70450;SDS011;58869;51.982;4.450;2022-11-15T08:57:30;8.62;;;8.62;;
70450;SDS011;58869;51.982;4.450;2022-11-15T08:59:56;8.08;;;8.08;;
70450;SDS011;58869;51.982;4.450;2022-11-15T09:02:21;8.22;;;8.22;;
70450;SDS011;58869;51.982;4.450;2022-11-15T09:04:47;8.27;;;8.27;;
70450;SDS011;58869;51.982;4.450;2022-11-15T09:07:13;7.80;;;7.80;;
70450;SDS011;58869;51.982;4.450;2022-11-15T09:09:39;8.10;;;8.10;;
70450;SDS011;58869;51.982;4.450;2022-11-15T09:12:05;8.02;;;7.99;;
70450;SDS011;58869;51.982;4.450;2022-11-15T09:14:32;8.39;;;8.39;;
70450;SDS011;58869;51.982;4.450;2022-11-15T09:16:58;8.89;;;8.89;;
70450;SDS011;58869;51.982;4.450;2022-11-15T09:19:24;8.43;;;8.41;;
70450;SDS011;58869;51.982;4.450;2022-11-15T09:21:49;8.25;;;8.23;;
70450;SDS011;58869;51.982;4.450;2022-11-15T09:24:15;8.52;;;8.49;;
70450;SDS011;58869;51.982;4.450;2022-11-15T09:26:42;8.32;;;8.32;;
70450;SDS011;58869;51.982;4.450;2022-11-15T09:29:07;8.36;;;8.36;;
70450;SDS011;58869;51.982;4.450;2022-11-15T09:31:33;8.21;;;8.20;;
70450;SDS011;58869;51.982;4.450;2022-11-15T09:33:58;7.73;;;7.73;;
70450;SDS011;58869;51.982;4.450;2022-11-15T09:36:24;7.52;;;7.52;;
70450;SDS011;58869;51.982;4.450;2022-11-15T09:38:50;7.33;;;7.33;;
70450;SDS011;58869;51.982;4.450;2022-11-15T09:49:06;7.14;;;7.13;;
70450;SDS011;58869;51.982;4.450;2022-11-15T09:56:35;7.55;;;7.55;;
70450;SDS011;58869;51.982;4.450;2022-11-15T09:59:14;7.16;;;7.15;;
70450;SDS011;58869;51.982;4.450;2022-11-15T10:01:49;6.88;;;6.88;;
70450;SDS011;58869;51.982;4.450;2022-11-15T10:04:20;7.09;;;7.09;;
70450;SDS011;58869;51.982;4.450;2022-11-15T10:06:59;6.43;;;6.43;;
70450;SDS011;58869;51.982;4.450;2022-11-15T10:09:36;5.96;;;5.96;;
70450;SDS011;58869;51.982;4.450;2022-11-15T10:12:06;6.11;;;6.11;;
70450;SDS011;58869;51.982;4.450;2022-11-15T10:14:33;5.52;;;5.52;;
70450;SDS011;58869;51.982;4.450;2022-11-15T10:25:00;4.86;;;4.85;;
70450;SDS011;58869;51.982;4.450;2022-11-15T10:27:34;4.89;;;4.88;;
70450;SDS011;58869;51.982;4.450;2022-11-15T10:30:00;4.80;;;4.79;;
70450;SDS011;58869;51.982;4.450;2022-11-15T10:32:29;4.87;;;4.79;;
70450;SDS011;58869;51.982;4.450;2022-11-15T10:34:58;4.81;;;4.79;;
70450;SDS011;58869;51.982;4.450;2022-11-15T10:37:28;4.65;;;4.65;;
70450;SDS011;58869;51.982;4.450;2022-11-15T10:42:40;4.68;;;4.68;;
70450;SDS011;58869;51.982;4.450;2022-11-15T10:45:48;4.82;;;4.82;;
70450;SDS011;58869;51.982;4.450;2022-11-15T10:48:18;4.51;;;4.51;;
70450;SDS011;58869;51.982;4.450;2022-11-15T10:50:47;5.07;;;5.06;;
70450;SDS011;58869;51.982;4.450;2022-11-15T10:53:24;4.54;;;4.51;;
70450;SDS011;58869;51.982;4.450;2022-11-15T10:55:56;4.91;;;4.88;;
70450;SDS011;58869;51.982;4.450;2022-11-15T11:01:21;4.31;;;4.31;;
70450;SDS011;58869;51.982;4.450;2022-11-15T11:03:59;4.47;;;4.46;;
70450;SDS011;58869;51.982;4.450;2022-11-15T11:06:50;4.91;;;4.81;;
70450;SDS011;58869;51.982;4.450;2022-11-15T11:11:59;4.31;;;4.31;;
70450;SDS011;58869;51.982;4.450;2022-11-15T11:14:26;3.64;;;3.63;;
70450;SDS011;58869;51.982;4.450;2022-11-15T11:33:18;3.64;;;3.30;;
70450;SDS011;58869;51.982;4.450;2022-11-15T11:59:02;3.64;;;3.31;;
70450;SDS011;58869;51.982;4.450;2022-11-15T12:01:59;3.23;;;2.94;;
70450;SDS011;58869;51.982;4.450;2022-11-15T12:11:17;3.57;;;3.22;;
70450;SDS011;58869;51.982;4.450;2022-11-15T12:17:26;4.10;;;3.70;;
70450;SDS011;58869;51.982;4.450;2022-11-15T12:19:57;4.36;;;3.91;;
70450;SDS011;58869;51.982;4.450;2022-11-15T12:22:54;4.28;;;3.87;;
70450;SDS011;58869;51.982;4.450;2022-11-15T12:26:16;4.77;;;4.26;;
70450;SDS011;58869;51.982;4.450;2022-11-15T12:31:45;2.78;;;2.44;;
70450;SDS011;58869;51.982;4.450;2022-11-15T12:36:50;2.95;;;2.61;;
70450;SDS011;58869;51.982;4.450;2022-11-15T12:39:17;2.95;;;2.55;;
70450;SDS011;58869;51.982;4.450;2022-11-15T13:02:20;3.14;;;2.64;;
70450;SDS011;58869;51.982;4.450;2022-11-15T13:04:48;3.05;;;2.61;;
70450;SDS011;58869;51.982;4.450;2022-11-15T13:17:51;3.40;;;2.89;;
70450;SDS011;58869;51.982;4.450;2022-11-15T13:20:22;3.36;;;2.80;;
70450;SDS011;58869;51.982;4.450;2022-11-15T13:31:22;4.38;;;3.73;;
70450;SDS011;58869;51.982;4.450;2022-11-15T13:34:01;4.19;;;3.54;;
70450;SDS011;58869;51.982;4.450;2022-11-15T13:36:47;3.32;;;2.75;;
70450;SDS011;58869;51.982;4.450;2022-11-15T13:39:26;3.02;;;2.49;;
70450;SDS011;58869;51.982;4.450;2022-11-15T13:41:53;3.26;;;2.69;;
70450;SDS011;58869;51.982;4.450;2022-11-15T13:44:23;3.90;;;3.17;;
70450;SDS011;58869;51.982;4.450;2022-11-15T13:47:24;3.70;;;3.00;;
70450;SDS011;58869;51.982;4.450;2022-11-15T13:49:43;3.34;;;2.70;;
70450;SDS011;58869;51.982;4.450;2022-11-15T13:52:15;3.93;;;3.22;;
70450;SDS011;58869;51.982;4.450;2022-11-15T13:54:43;4.59;;;3.73;;
70450;SDS011;58869;51.982;4.450;2022-11-15T13:57:29;3.90;;;3.15;;
70450;SDS011;58869;51.982;4.450;2022-11-15T14:05:44;2.67;;;2.36;;
70450;SDS011;58869;51.982;4.450;2022-11-15T14:08:25;2.59;;;2.27;;
70450;SDS011;58869;51.982;4.450;2022-11-15T14:11:05;2.57;;;2.27;;
70450;SDS011;58869;51.982;4.450;2022-11-15T14:13:39;3.47;;;3.03;;
70450;SDS011;58869;51.982;4.450;2022-11-15T14:16:20;4.02;;;3.37;;
70450;SDS011;58869;51.982;4.450;2022-11-15T14:18:50;4.36;;;3.53;;
70450;SDS011;58869;51.982;4.450;2022-11-15T14:21:17;5.99;;;4.80;;
70450;SDS011;58869;51.982;4.450;2022-11-15T14:23:43;3.67;;;3.06;;
70450;SDS011;58869;51.982;4.450;2022-11-15T14:26:29;3.69;;;3.05;;
70450;SDS011;58869;51.982;4.450;2022-11-15T14:31:50;3.47;;;2.93;;
70450;SDS011;58869;51.982;4.450;2022-11-15T14:34:16;2.84;;;2.47;;
70450;SDS011;58869;51.982;4.450;2022-11-15T14:36:41;3.10;;;2.71;;
70450;SDS011;58869;51.982;4.450;2022-11-15T14:39:13;2.61;;;2.30;;
70450;SDS011;58869;51.982;4.450;2022-11-15T14:41:38;3.18;;;2.81;;
70450;SDS011;58869;51.982;4.450;2022-11-15T14:44:12;3.48;;;3.07;;
70450;SDS011;58869;51.982;4.450;2022-11-15T14:46:43;3.57;;;3.13;;
70450;SDS011;58869;51.982;4.450;2022-11-15T14:49:17;3.15;;;2.71;;
70450;SDS011;58869;51.982;4.450;2022-11-15T14:51:52;2.91;;;2.53;;
70450;SDS011;58869;51.982;4.450;2022-11-15T14:54:39;3.04;;;2.67;;
70450;SDS011;58869;51.982;4.450;2022-11-15T14:57:15;3.44;;;3.05;;
70450;SDS011;58869;51.982;4.450;2022-11-15T15:05:39;2.77;;;2.51;;
70450;SDS011;58869;51.982;4.450;2022-11-15T15:08:07;2.85;;;2.58;;
70450;SDS011;58869;51.982;4.450;2022-11-15T15:10:49;2.89;;;2.55;;
70450;SDS011;58869;51.982;4.450;2022-11-15T15:13:16;2.60;;;2.28;;
70450;SDS011;58869;51.982;4.450;2022-11-15T15:16:05;2.61;;;2.34;;
70450;SDS011;58869;51.982;4.450;2022-11-15T15:18:33;3.01;;;2.71;;
70450;SDS011;58869;51.982;4.450;2022-11-15T15:24:04;3.16;;;2.82;;
70450;SDS011;58869;51.982;4.450;2022-11-15T15:30:23;3.90;;;3.44;;
70450;SDS011;58869;51.982;4.450;2022-11-15T15:35:27;3.22;;;2.88;;
70450;SDS011;58869;51.982;4.450;2022-11-15T15:37:55;2.96;;;2.72;;
70450;SDS011;58869;51.982;4.450;2022-11-15T15:40:24;2.73;;;2.56;;
70450;SDS011;58869;51.982;4.450;2022-11-15T15:42:51;2.95;;;2.80;;
70450;SDS011;58869;51.982;4.450;2022-11-15T15:45:17;2.92;;;2.77;;
70450;SDS011;58869;51.982;4.450;2022-11-15T15:47:43;3.94;;;3.72;;
70450;SDS011;58869;51.982;4.450;2022-11-15T15:52:43;4.40;;;4.02;;
70450;SDS011;58869;51.982;4.450;2022-11-15T15:55:08;3.39;;;3.18;;
70450;SDS011;58869;51.982;4.450;2022-11-15T15:57:35;4.10;;;3.78;;
70450;SDS011;58869;51.982;4.450;2022-11-15T16:00:01;3.86;;;3.49;;
70450;SDS011;58869;51.982;4.450;2022-11-15T16:02:27;3.37;;;3.10;;
70450;SDS011;58869;51.982;4.450;2022-11-15T16:04:56;3.38;;;3.08;;
70450;SDS011;58869;51.982;4.450;2022-11-15T16:07:22;4.33;;;4.02;;
70450;SDS011;58869;51.982;4.450;2022-11-15T16:09:53;4.76;;;4.38;;
70450;SDS011;58869;51.982;4.450;2022-11-15T16:12:25;4.44;;;4.11;;
70450;SDS011;58869;51.982;4.450;2022-11-15T16:14:53;4.72;;;4.29;;
70450;SDS011;58869;51.982;4.450;2022-11-15T16:17:20;4.46;;;4.07;;
70450;SDS011;58869;51.982;4.450;2022-11-15T16:19:50;5.41;;;4.93;;
70450;SDS011;58869;51.982;4.450;2022-11-15T16:22:16;5.13;;;4.68;;
70450;SDS011;58869;51.982;4.450;2022-11-15T16:24:41;4.17;;;3.89;;
70450;SDS011;58869;51.982;4.450;2022-11-15T16:27:17;4.96;;;4.73;;
70450;SDS011;58869;51.982;4.450;2022-11-15T16:29:44;4.35;;;4.11;;
70450;SDS011;58869;51.982;4.450;2022-11-15T16:32:10;4.58;;;4.42;;
70450;SDS011;58869;51.982;4.450;2022-11-15T16:34:36;5.15;;;4.87;;
70450;SDS011;58869;51.982;4.450;2022-11-15T16:37:02;4.57;;;4.37;;
70450;SDS011;58869;51.982;4.450;2022-11-15T16:39:30;4.23;;;4.11;;
70450;SDS011;58869;51.982;4.450;2022-11-15T16:41:57;4.34;;;4.23;;
70450;SDS011;58869;51.982;4.450;2022-11-15T16:44:22;4.80;;;4.68;;
70450;SDS011;58869;51.982;4.450;2022-11-15T16:46:49;3.96;;;3.88;;
70450;SDS011;58869;51.982;4.450;2022-11-15T16:49:16;4.11;;;4.05;;
70450;SDS011;58869;51.982;4.450;2022-11-15T16:51:47;4.51;;;4.43;;
70450;SDS011;58869;51.982;4.450;2022-11-15T16:54:14;4.48;;;4.39;;
70450;SDS011;58869;51.982;4.450;2022-11-15T16:56:41;5.65;;;5.53;;
70450;SDS011;58869;51.982;4.450;2022-11-15T16:59:08;5.02;;;4.94;;
70450;SDS011;58869;51.982;4.450;2022-11-15T17:01:42;5.66;;;5.61;;
70450;SDS011;58869;51.982;4.450;2022-11-15T17:04:15;5.14;;;5.10;;
70450;SDS011;58869;51.982;4.450;2022-11-15T17:06:45;6.67;;;6.53;;
70450;SDS011;58869;51.982;4.450;2022-11-15T17:09:12;6.62;;;6.38;;
70450;SDS011;58869;51.982;4.450;2022-11-15T17:11:42;5.04;;;4.90;;
70450;SDS011;58869;51.982;4.450;2022-11-15T17:14:07;5.19;;;5.11;;
70450;SDS011;58869;51.982;4.450;2022-11-15T17:16:33;5.17;;;5.06;;
70450;SDS011;58869;51.982;4.450;2022-11-15T17:19:00;5.07;;;5.04;;
70450;SDS011;58869;51.982;4.450;2022-11-15T17:21:25;5.76;;;5.73;;
70450;SDS011;58869;51.982;4.450;2022-11-15T17:23:52;5.22;;;5.17;;
70450;SDS011;58869;51.982;4.450;2022-11-15T17:26:18;5.04;;;4.99;;
70450;SDS011;58869;51.982;4.450;2022-11-15T17:28:44;5.89;;;5.81;;
70450;SDS011;58869;51.982;4.450;2022-11-15T17:31:10;4.90;;;4.85;;
70450;SDS011;58869;51.982;4.450;2022-11-15T17:33:37;4.67;;;4.65;;
70450;SDS011;58869;51.982;4.450;2022-11-15T17:36:05;5.29;;;5.28;;
70450;SDS011;58869;51.982;4.450;2022-11-15T17:38:32;5.36;;;5.36;;
70450;SDS011;58869;51.982;4.450;2022-11-15T17:41:06;5.32;;;5.31;;
70450;SDS011;58869;51.982;4.450;2022-11-15T17:43:35;5.02;;;5.01;;
70450;SDS011;58869;51.982;4.450;2022-11-15T17:46:03;5.24;;;5.24;;
70450;SDS011;58869;51.982;4.450;2022-11-15T17:48:30;5.63;;;5.63;;
70450;SDS011;58869;51.982;4.450;2022-11-15T17:50:57;6.55;;;6.54;;
70450;SDS011;58869;51.982;4.450;2022-11-15T17:53:25;6.09;;;6.07;;
70450;SDS011;58869;51.982;4.450;2022-11-15T17:55:52;5.94;;;5.93;;